createdAt,value
2017-05-17T00:00:19.089Z,0
2017-05-17T00:01:31.514Z,0
2017-05-17T00:02:44.431Z,0
2017-05-17T00:03:57.550Z,0
2017-05-17T00:05:10.476Z,0
2017-05-17T00:06:22.905Z,0
2017-05-17T00:07:35.333Z,0
2017-05-17T00:08:47.765Z,0
2017-05-17T00:10:00.883Z,0
2017-05-17T00:11:13.308Z,0
2017-05-17T00:12:26.229Z,0
2017-05-17T00:13:39.148Z,0
2017-05-17T00:14:52.070Z,0
2017-05-17T00:16:04.998Z,0
2017-05-17T00:17:16.937Z,0
2017-05-17T00:18:29.911Z,0
2017-05-17T00:19:42.831Z,0
2017-05-17T00:20:56.061Z,0
2017-05-17T00:22:08.977Z,0
2017-05-17T00:23:21.896Z,0
2017-05-17T00:24:34.815Z,0
2017-05-17T00:25:47.246Z,0
2017-05-17T00:27:00.166Z,0
2017-05-17T00:28:12.591Z,0
2017-05-17T00:29:25.020Z,0
2017-05-17T00:30:37.933Z,0
2017-05-17T00:31:50.359Z,0
2017-05-17T00:33:02.787Z,0
2017-05-17T00:34:15.750Z,0
2017-05-17T00:35:28.675Z,0
2017-05-17T00:36:41.592Z,0
2017-05-17T00:37:54.510Z,0
2017-05-17T00:39:07.431Z,0
2017-05-17T00:40:20.391Z,0
2017-05-17T00:41:33.316Z,0
2017-05-17T00:43:00.283Z,0
2017-05-17T00:44:13.201Z,0
2017-05-17T00:45:26.122Z,0
2017-05-17T00:46:39.042Z,0
2017-05-17T00:47:52.163Z,0
2017-05-17T00:49:05.085Z,0
2017-05-17T00:50:18.005Z,0
2017-05-17T00:51:30.920Z,0
2017-05-17T00:52:44.038Z,0
2017-05-17T00:53:56.955Z,0
2017-05-17T00:55:09.881Z,0
2017-05-17T00:56:22.309Z,0
2017-05-17T00:57:35.229Z,0
2017-05-17T00:58:48.344Z,0
2017-05-17T01:00:01.268Z,0
2017-05-17T01:01:13.696Z,0
2017-05-17T01:02:26.616Z,0
2017-05-17T01:03:39.531Z,0
2017-05-17T01:04:52.445Z,0
2017-05-17T01:06:05.368Z,0
2017-05-17T01:07:18.285Z,0
2017-05-17T01:08:30.223Z,0
2017-05-17T01:09:43.347Z,0
2017-05-17T01:10:56.265Z,0
2017-05-17T01:12:08.725Z,0
2017-05-17T01:13:21.640Z,0
2017-05-17T01:14:34.067Z,0
2017-05-17T01:15:47.035Z,0
2017-05-17T01:16:59.963Z,0
2017-05-17T01:18:12.929Z,0
2017-05-17T01:19:25.854Z,0
2017-05-17T01:20:38.976Z,0
2017-05-17T01:21:51.944Z,0
2017-05-17T01:23:04.868Z,0
2017-05-17T01:24:17.786Z,0
2017-05-17T01:25:30.703Z,0
2017-05-17T01:26:43.617Z,0
2017-05-17T01:27:56.572Z,0
2017-05-17T01:29:09.500Z,0
2017-05-17T01:30:22.434Z,0
2017-05-17T01:31:34.872Z,0
2017-05-17T01:32:47.787Z,0
2017-05-17T01:34:00.702Z,0
2017-05-17T01:35:13.618Z,0
2017-05-17T01:36:26.532Z,0
2017-05-17T01:37:39.450Z,0
2017-05-17T01:38:51.879Z,0
2017-05-17T01:40:04.858Z,0
2017-05-17T01:41:17.778Z,0
2017-05-17T01:42:30.697Z,0
2017-05-17T01:43:43.624Z,0
2017-05-17T01:44:56.535Z,0
2017-05-17T01:46:09.452Z,0
2017-05-17T01:47:22.576Z,0
2017-05-17T01:48:35.002Z,0
2017-05-17T01:49:47.926Z,0
2017-05-17T01:51:00.842Z,0
2017-05-17T01:52:13.268Z,0
2017-05-17T01:53:25.698Z,0
2017-05-17T01:54:38.648Z,0
2017-05-17T01:55:51.569Z,0
2017-05-17T01:57:04.486Z,0
2017-05-17T01:58:17.703Z,0
2017-05-17T01:59:30.131Z,0
2017-05-17T02:00:43.051Z,0
2017-05-17T02:01:55.965Z,0
2017-05-17T02:03:08.884Z,0
2017-05-17T02:04:21.802Z,0
2017-05-17T02:05:34.720Z,0
2017-05-17T02:06:47.636Z,0
2017-05-17T02:08:00.072Z,0
2017-05-17T02:09:12.992Z,0
2017-05-17T02:10:25.910Z,0
2017-05-17T02:11:38.823Z,0
2017-05-17T02:12:51.864Z,0
2017-05-17T02:14:04.934Z,0
2017-05-17T02:15:17.983Z,0
2017-05-17T02:16:31.022Z,0
2017-05-17T02:17:44.070Z,0
2017-05-17T02:18:57.129Z,0
2017-05-17T02:20:10.470Z,0
2017-05-17T02:21:23.508Z,0
2017-05-17T02:22:36.056Z,0
2017-05-17T02:23:49.101Z,0
2017-05-17T02:25:02.157Z,0
2017-05-17T02:26:14.896Z,0
2017-05-17T02:27:27.987Z,0
2017-05-17T02:28:41.033Z,0
2017-05-17T02:29:54.082Z,0
2017-05-17T02:31:07.131Z,0
2017-05-17T02:32:19.686Z,0
2017-05-17T02:33:32.724Z,0
2017-05-17T02:34:45.761Z,0
2017-05-17T02:35:58.803Z,0
2017-05-17T02:37:11.844Z,0
2017-05-17T02:38:24.898Z,0
2017-05-17T02:39:37.946Z,0
2017-05-17T02:40:50.987Z,0
2017-05-17T02:42:04.028Z,0
2017-05-17T02:43:17.068Z,0
2017-05-17T02:44:30.113Z,0
2017-05-17T02:45:43.036Z,0
2017-05-17T02:46:55.936Z,0
2017-05-17T02:48:08.831Z,0
2017-05-17T02:49:21.752Z,0
2017-05-17T02:50:34.646Z,0
2017-05-17T02:51:47.547Z,0
2017-05-17T02:53:00.274Z,0
2017-05-17T02:54:13.227Z,0
2017-05-17T02:55:26.131Z,0
2017-05-17T02:56:39.038Z,0
2017-05-17T02:57:51.942Z,0
2017-05-17T02:59:05.045Z,0
2017-05-17T03:00:17.471Z,0
2017-05-17T03:01:30.388Z,0
2017-05-17T03:02:43.310Z,0
2017-05-17T03:03:56.433Z,0
2017-05-17T03:05:09.352Z,0
2017-05-17T03:06:22.274Z,0
2017-05-17T03:07:34.697Z,0
2017-05-17T03:08:47.133Z,0
2017-05-17T03:10:00.250Z,0
2017-05-17T03:11:13.168Z,0
2017-05-17T03:12:26.086Z,0
2017-05-17T03:13:39.012Z,0
2017-05-17T03:14:51.930Z,0
2017-05-17T03:16:04.848Z,0
2017-05-17T03:17:16.827Z,0
2017-05-17T03:18:29.752Z,0
2017-05-17T03:19:42.181Z,0
2017-05-17T03:20:55.098Z,0
2017-05-17T03:22:08.015Z,0
2017-05-17T03:23:20.444Z,0
2017-05-17T03:24:33.357Z,0
2017-05-17T03:25:46.480Z,0
2017-05-17T03:26:59.405Z,0
2017-05-17T03:28:11.832Z,0
2017-05-17T03:29:24.749Z,0
2017-05-17T03:30:37.663Z,0
2017-05-17T03:31:50.887Z,0
2017-05-17T03:33:03.803Z,0
2017-05-17T03:34:16.230Z,0
2017-05-17T03:35:29.149Z,0
2017-05-17T03:38:09.069Z,0
2017-05-17T03:39:21.983Z,0
2017-05-17T03:40:34.407Z,0
2017-05-17T03:41:47.521Z,0
2017-05-17T03:43:00.436Z,0
2017-05-17T03:44:13.355Z,0
2017-05-17T03:45:26.273Z,0
2017-05-17T03:46:38.700Z,0
2017-05-17T03:47:51.625Z,0
2017-05-17T03:49:04.537Z,0
2017-05-17T03:50:16.958Z,0
2017-05-17T03:51:29.875Z,0
2017-05-17T03:52:42.504Z,0
2017-05-17T03:53:55.419Z,0
2017-05-17T03:55:08.455Z,0
2017-05-17T03:56:21.514Z,0
2017-05-17T03:57:34.571Z,0
2017-05-17T03:58:47.926Z,0
2017-05-17T04:00:00.983Z,0
2017-05-17T04:01:14.045Z,0
2017-05-17T04:02:27.102Z,0
2017-05-17T04:03:39.960Z,0
2017-05-17T04:04:53.022Z,0
2017-05-17T04:06:06.089Z,0
2017-05-17T04:07:19.149Z,0
2017-05-17T04:08:32.212Z,0
2017-05-17T04:09:45.467Z,0
2017-05-17T04:10:58.522Z,0
2017-05-17T04:12:10.579Z,0
2017-05-17T04:13:23.638Z,0
2017-05-17T04:14:36.893Z,0
2017-05-17T04:15:49.949Z,0
2017-05-17T04:17:03.035Z,0
2017-05-17T04:18:16.116Z,0
2017-05-17T04:19:29.173Z,0
2017-05-17T04:20:42.032Z,0
2017-05-17T04:21:55.101Z,0
2017-05-17T04:23:08.159Z,0
2017-05-17T04:24:21.223Z,0
2017-05-17T04:25:48.299Z,0
2017-05-17T04:27:00.857Z,0
2017-05-17T04:28:13.378Z,0
2017-05-17T04:29:25.784Z,0
2017-05-17T04:30:38.690Z,0
2017-05-17T04:31:51.788Z,0
2017-05-17T04:33:04.684Z,0
2017-05-17T04:34:17.090Z,0
2017-05-17T04:35:29.495Z,0
2017-05-17T04:36:42.396Z,0
2017-05-17T04:37:54.816Z,0
2017-05-17T04:39:07.720Z,0
2017-05-17T04:40:20.619Z,0
2017-05-17T04:41:33.521Z,0
2017-05-17T04:42:46.618Z,0
2017-05-17T04:43:59.508Z,0
2017-05-17T04:45:12.408Z,0
2017-05-17T04:46:24.865Z,0
2017-05-17T04:47:37.764Z,0
2017-05-17T04:48:50.661Z,0
2017-05-17T04:50:03.554Z,0
2017-05-17T04:51:15.963Z,0
2017-05-17T04:52:28.869Z,0
2017-05-17T04:53:41.975Z,0
2017-05-17T04:54:54.876Z,0
2017-05-17T04:56:07.286Z,0
2017-05-17T04:57:20.192Z,0
2017-05-17T04:58:33.098Z,0
2017-05-17T04:59:45.996Z,0
2017-05-17T05:00:58.890Z,0
2017-05-17T05:02:11.297Z,0
2017-05-17T05:03:24.202Z,0
2017-05-17T05:04:36.811Z,0
2017-05-17T05:05:49.710Z,0
2017-05-17T05:07:02.118Z,0
2017-05-17T05:08:14.532Z,0
2017-05-17T05:09:27.628Z,0
2017-05-17T05:10:40.520Z,0
2017-05-17T05:11:53.422Z,0
2017-05-17T05:13:06.322Z,0
2017-05-17T05:14:19.110Z,0
2017-05-17T05:15:31.897Z,0
2017-05-17T05:16:44.193Z,0
2017-05-17T05:17:56.991Z,0
2017-05-17T05:19:09.767Z,0
2017-05-17T05:20:22.065Z,0
2017-05-17T05:21:34.359Z,0
2017-05-17T05:22:47.140Z,0
2017-05-17T05:23:59.439Z,0
2017-05-17T05:25:12.219Z,0
2017-05-17T05:26:25.301Z,0
2017-05-17T05:27:37.594Z,0
2017-05-17T05:28:50.372Z,0
2017-05-17T05:30:03.157Z,0
2017-05-17T05:31:16.145Z,0
2017-05-17T05:32:28.960Z,0
2017-05-17T05:33:40.784Z,0
2017-05-17T05:34:53.564Z,0
2017-05-17T05:36:06.405Z,0
2017-05-17T05:37:18.833Z,0
2017-05-17T05:38:31.752Z,0
2017-05-17T05:39:44.181Z,0
2017-05-17T05:40:57.110Z,0
2017-05-17T05:42:10.040Z,0
2017-05-17T05:43:22.467Z,0
2017-05-17T05:44:35.390Z,0
2017-05-17T05:45:48.311Z,0
2017-05-17T05:47:00.737Z,0
2017-05-17T05:48:13.474Z,0
2017-05-17T05:49:26.398Z,0
2017-05-17T05:50:38.828Z,0
2017-05-17T05:51:51.748Z,0
2017-05-17T05:53:04.677Z,0
2017-05-17T05:54:17.658Z,0
2017-05-17T05:55:30.576Z,0
2017-05-17T05:56:43.494Z,0
2017-05-17T05:57:56.415Z,0
2017-05-17T05:59:09.694Z,0
2017-05-17T06:00:22.747Z,0
2017-05-17T06:01:35.807Z,0
2017-05-17T06:02:48.865Z,0
2017-05-17T06:04:02.129Z,0
2017-05-17T06:05:14.685Z,0
2017-05-17T06:06:27.746Z,0
2017-05-17T06:07:40.800Z,0
2017-05-17T06:08:53.361Z,0
2017-05-17T06:10:05.921Z,0
2017-05-17T06:11:18.851Z,0
2017-05-17T06:12:31.775Z,0
2017-05-17T06:13:44.203Z,0
2017-05-17T06:14:57.121Z,0
2017-05-17T06:16:10.035Z,0
2017-05-17T06:17:22.458Z,0
2017-05-17T06:18:35.377Z,0
2017-05-17T06:19:48.292Z,0
2017-05-17T06:21:01.210Z,0
2017-05-17T06:22:13.643Z,0
2017-05-17T06:23:26.076Z,0
2017-05-17T06:24:39.008Z,0
2017-05-17T06:25:52.130Z,0
2017-05-17T06:27:05.058Z,0
2017-05-17T06:28:17.482Z,0
2017-05-17T06:29:30.445Z,0
2017-05-17T06:30:43.361Z,0
2017-05-17T06:31:56.582Z,0
2017-05-17T06:33:09.510Z,0
2017-05-17T06:34:22.424Z,0
2017-05-17T06:35:34.849Z,0
2017-05-17T06:36:47.767Z,0
2017-05-17T06:38:00.196Z,0
2017-05-17T06:39:13.111Z,0
2017-05-17T06:40:25.535Z,0
2017-05-17T06:41:38.448Z,0
2017-05-17T06:42:51.573Z,0
2017-05-17T06:44:04.492Z,0
2017-05-17T06:45:16.312Z,0
2017-05-17T06:46:29.090Z,0
2017-05-17T06:47:42.167Z,0
2017-05-17T06:48:54.943Z,0
2017-05-17T06:50:07.244Z,0
2017-05-17T06:51:19.065Z,0
2017-05-17T06:52:31.847Z,0
2017-05-17T06:53:44.929Z,0
2017-05-17T06:54:57.706Z,0
2017-05-17T06:56:10.485Z,0
2017-05-17T06:57:22.303Z,0
2017-05-17T06:58:34.906Z,0
2017-05-17T06:59:47.215Z,0
2017-05-17T07:00:59.995Z,0
2017-05-17T07:02:12.771Z,0
2017-05-17T07:03:25.547Z,0
2017-05-17T07:04:38.625Z,0
2017-05-17T07:05:50.924Z,0
2017-05-17T07:07:03.703Z,0
2017-05-17T07:08:15.999Z,0
2017-05-17T07:09:29.088Z,0
2017-05-17T07:10:41.865Z,0
2017-05-17T07:11:54.641Z,0
2017-05-17T07:13:07.422Z,0
2017-05-17T07:14:20.201Z,0
2017-05-17T07:15:32.979Z,0
2017-05-17T07:16:45.754Z,0
2017-05-17T07:17:58.533Z,0
2017-05-17T07:19:10.830Z,0
2017-05-17T07:20:23.430Z,0
2017-05-17T07:21:35.251Z,0
2017-05-17T07:22:48.030Z,0
2017-05-17T07:24:00.817Z,0
2017-05-17T07:25:13.598Z,0
2017-05-17T07:26:26.681Z,0
2017-05-17T07:27:39.461Z,0
2017-05-17T07:28:52.243Z,0
2017-05-17T07:30:05.136Z,0
2017-05-17T07:31:18.034Z,0
2017-05-17T07:32:30.936Z,0
2017-05-17T07:33:43.360Z,0
2017-05-17T07:34:56.262Z,0
2017-05-17T07:36:09.163Z,0
2017-05-17T07:37:22.059Z,0
2017-05-17T07:38:34.469Z,0
2017-05-17T07:39:47.365Z,0
2017-05-17T07:40:59.768Z,0
2017-05-17T07:42:12.182Z,0
2017-05-17T07:43:25.077Z,0
2017-05-17T07:44:37.983Z,0
2017-05-17T07:45:50.880Z,0
2017-05-17T07:47:03.778Z,0
2017-05-17T07:48:30.729Z,0
2017-05-17T07:49:43.649Z,0
2017-05-17T07:50:56.063Z,0
2017-05-17T07:52:08.971Z,0
2017-05-17T07:53:21.876Z,0
2017-05-17T07:54:34.402Z,0
2017-05-17T07:55:46.446Z,0
2017-05-17T07:56:59.498Z,0
2017-05-17T07:58:12.838Z,0
2017-05-17T07:59:25.383Z,0
2017-05-17T08:00:38.480Z,0
2017-05-17T08:01:51.518Z,0
2017-05-17T08:03:03.561Z,0
2017-05-17T08:04:16.605Z,0
2017-05-17T08:05:29.642Z,0
2017-05-17T08:06:42.185Z,0
2017-05-17T08:07:54.747Z,0
2017-05-17T08:09:08.093Z,0
2017-05-17T08:10:20.130Z,0
2017-05-17T08:11:33.170Z,0
2017-05-17T08:12:46.213Z,0
2017-05-17T08:13:59.261Z,0
2017-05-17T08:15:12.006Z,0
2017-05-17T08:16:25.046Z,0
2017-05-17T08:17:38.085Z,0
2017-05-17T08:18:51.131Z,0
2017-05-17T08:20:04.392Z,0
2017-05-17T08:21:16.937Z,0
2017-05-17T08:22:28.982Z,0
2017-05-17T08:23:42.031Z,0
2017-05-17T08:24:55.086Z,0
2017-05-17T08:26:07.628Z,0
2017-05-17T08:27:20.666Z,0
2017-05-17T08:28:33.702Z,0
2017-05-17T08:29:46.751Z,0
2017-05-17T08:30:59.840Z,0
2017-05-17T08:32:12.879Z,0
2017-05-17T08:33:25.422Z,0
2017-05-17T08:34:37.964Z,0
2017-05-17T08:35:51.006Z,0
2017-05-17T08:37:04.246Z,0
2017-05-17T08:38:17.297Z,0
2017-05-17T08:39:29.869Z,0
2017-05-17T08:40:42.909Z,0
2017-05-17T08:41:56.252Z,0
2017-05-17T08:43:09.295Z,0
2017-05-17T08:44:22.348Z,0
2017-05-17T08:45:35.388Z,0
2017-05-17T08:46:47.924Z,0
2017-05-17T08:48:00.964Z,0
2017-05-17T08:49:14.011Z,0
2017-05-17T08:50:26.601Z,0
2017-05-17T08:51:39.638Z,0
2017-05-17T08:52:52.184Z,0
2017-05-17T08:54:04.731Z,0
2017-05-17T08:55:16.774Z,0
2017-05-17T08:56:29.812Z,0
2017-05-17T08:57:42.854Z,0
2017-05-17T08:58:55.198Z,0
2017-05-17T09:00:07.749Z,0
2017-05-17T09:01:20.289Z,0
2017-05-17T09:02:33.206Z,0
2017-05-17T09:03:46.409Z,0
2017-05-17T09:04:59.307Z,0
2017-05-17T09:06:11.222Z,0
2017-05-17T09:07:24.123Z,0
2017-05-17T09:08:37.024Z,0
2017-05-17T09:09:50.127Z,0
2017-05-17T09:11:03.028Z,0
2017-05-17T09:12:15.964Z,0
2017-05-17T09:13:28.866Z,0
2017-05-17T09:14:42.068Z,0
2017-05-17T09:15:54.979Z,0
2017-05-17T09:17:07.392Z,0
2017-05-17T09:18:19.799Z,0
2017-05-17T09:19:32.701Z,0
2017-05-17T09:20:45.314Z,0
2017-05-17T09:21:58.275Z,0
2017-05-17T09:23:10.684Z,0
2017-05-17T09:24:22.605Z,0
2017-05-17T09:25:35.802Z,0
2017-05-17T09:26:48.208Z,0
2017-05-17T09:28:01.110Z,0
2017-05-17T09:29:14.012Z,0
2017-05-17T09:30:26.905Z,0
2017-05-17T09:31:40.104Z,0
2017-05-17T09:32:52.513Z,0
2017-05-17T09:34:05.417Z,0
2017-05-17T09:35:18.320Z,0
2017-05-17T09:36:31.422Z,0
2017-05-17T09:37:43.827Z,0
2017-05-17T09:38:56.725Z,0
2017-05-17T09:40:09.143Z,0
2017-05-17T09:41:22.045Z,0
2017-05-17T09:42:35.141Z,0
2017-05-17T09:43:48.044Z,0
2017-05-17T09:45:00.966Z,0
2017-05-17T09:46:13.882Z,0
2017-05-17T09:47:26.522Z,0
2017-05-17T09:48:39.437Z,0
2017-05-17T09:49:52.355Z,0
2017-05-17T09:51:05.276Z,0
2017-05-17T09:52:17.214Z,0
2017-05-17T09:53:30.132Z,0
2017-05-17T09:54:43.054Z,0
2017-05-17T09:55:55.478Z,0
2017-05-17T09:57:08.445Z,0
2017-05-17T09:58:20.879Z,0
2017-05-17T09:59:33.797Z,0
2017-05-17T10:00:46.222Z,0
2017-05-17T10:01:58.648Z,0
2017-05-17T10:03:11.562Z,0
2017-05-17T10:04:24.192Z,0
2017-05-17T10:05:36.621Z,0
2017-05-17T10:06:49.051Z,0
2017-05-17T10:08:01.973Z,0
2017-05-17T10:09:15.101Z,0
2017-05-17T10:10:28.029Z,0
2017-05-17T10:11:40.526Z,0
2017-05-17T10:12:53.025Z,5
2017-05-17T10:14:06.031Z,5
2017-05-17T10:15:18.534Z,5
2017-05-17T10:16:31.532Z,5
2017-05-17T10:17:44.060Z,5
2017-05-17T10:18:57.069Z,5
2017-05-17T10:20:10.268Z,5
2017-05-17T10:21:22.765Z,5
2017-05-17T10:22:35.767Z,5
2017-05-17T10:23:48.760Z,5
2017-05-17T10:25:00.769Z,5
2017-05-17T10:26:13.271Z,5
2017-05-17T10:27:25.775Z,5
2017-05-17T10:28:38.784Z,5
2017-05-17T10:29:51.293Z,5
2017-05-17T10:31:04.290Z,5
2017-05-17T10:32:17.298Z,5
2017-05-17T10:33:30.303Z,5
2017-05-17T10:34:43.308Z,5
2017-05-17T10:35:56.311Z,10
2017-05-17T10:37:09.605Z,10
2017-05-17T10:38:22.109Z,10
2017-05-17T10:39:35.109Z,10
2017-05-17T10:40:48.103Z,5
2017-05-17T10:42:00.107Z,5
2017-05-17T10:43:13.348Z,5
2017-05-17T10:44:26.349Z,5
2017-05-17T10:45:39.356Z,5
2017-05-17T10:46:51.301Z,5
2017-05-17T10:48:04.418Z,5
2017-05-17T10:49:17.336Z,10
2017-05-17T10:50:29.763Z,10
2017-05-17T10:51:42.681Z,10
2017-05-17T10:52:55.797Z,10
2017-05-17T10:54:08.718Z,10
2017-05-17T10:55:21.632Z,10
2017-05-17T10:56:34.551Z,10
2017-05-17T10:57:47.474Z,10
2017-05-17T10:59:00.101Z,10
2017-05-17T11:00:13.020Z,10
2017-05-17T11:01:25.946Z,10
2017-05-17T11:02:38.860Z,10
2017-05-17T11:03:50.997Z,10
2017-05-17T11:05:03.969Z,10
2017-05-17T11:06:16.886Z,10
2017-05-17T11:07:29.319Z,15
2017-05-17T11:08:42.245Z,10
2017-05-17T11:09:55.246Z,10
2017-05-17T11:11:08.165Z,10
2017-05-17T11:12:20.598Z,10
2017-05-17T11:13:33.515Z,10
2017-05-17T11:15:00.376Z,10
2017-05-17T11:16:12.694Z,10
2017-05-17T11:17:25.478Z,10
2017-05-17T11:18:36.814Z,10
2017-05-17T11:19:49.596Z,10
2017-05-17T11:21:02.373Z,10
2017-05-17T11:22:13.708Z,15
2017-05-17T11:23:26.005Z,15
2017-05-17T11:24:38.788Z,15
2017-05-17T11:25:51.090Z,20
2017-05-17T11:27:03.868Z,15
2017-05-17T11:28:15.692Z,15
2017-05-17T11:29:28.474Z,15
2017-05-17T11:30:41.459Z,15
2017-05-17T11:31:54.241Z,10
2017-05-17T11:33:06.538Z,10
2017-05-17T11:34:18.843Z,10
2017-05-17T11:35:30.660Z,10
2017-05-17T11:36:42.964Z,10
2017-05-17T11:37:55.273Z,10
2017-05-17T11:39:08.061Z,10
2017-05-17T11:40:19.883Z,10
2017-05-17T11:41:32.961Z,15
2017-05-17T11:42:45.740Z,10
2017-05-17T11:43:57.078Z,10
2017-05-17T11:45:08.895Z,10
2017-05-17T11:46:21.196Z,10
2017-05-17T11:47:33.316Z,10
2017-05-17T11:48:45.616Z,10
2017-05-17T11:49:58.604Z,10
2017-05-17T11:51:10.419Z,10
2017-05-17T11:52:23.210Z,10
2017-05-17T11:53:35.999Z,15
2017-05-17T11:54:48.298Z,15
2017-05-17T11:56:00.596Z,15
2017-05-17T11:57:12.898Z,15
2017-05-17T11:59:52.190Z,10
2017-05-17T12:01:05.114Z,10
2017-05-17T12:02:17.536Z,10
2017-05-17T12:03:30.655Z,10
2017-05-17T12:04:43.087Z,5
2017-05-17T12:05:55.514Z,5
2017-05-17T12:07:08.437Z,5
2017-05-17T12:08:21.400Z,10
2017-05-17T12:09:48.415Z,10
2017-05-17T12:11:00.353Z,10
2017-05-17T12:12:13.274Z,10
2017-05-17T12:13:25.709Z,10
2017-05-17T12:14:38.155Z,10
2017-05-17T12:15:50.579Z,10
2017-05-17T12:17:03.051Z,10
2017-05-17T12:18:15.968Z,15
2017-05-17T12:19:29.193Z,15
2017-05-17T12:20:42.116Z,15
2017-05-17T12:21:54.550Z,20
2017-05-17T12:23:06.983Z,20
2017-05-17T12:24:19.409Z,20
2017-05-17T12:25:32.333Z,20
2017-05-17T12:26:44.760Z,20
2017-05-17T12:27:56.699Z,20
2017-05-17T12:29:09.623Z,20
2017-05-17T12:30:22.924Z,20
2017-05-17T12:31:35.437Z,20
2017-05-17T12:32:48.435Z,20
2017-05-17T12:33:59.950Z,20
2017-05-17T12:35:12.455Z,20
2017-05-17T12:36:25.759Z,20
2017-05-17T12:37:38.270Z,20
2017-05-17T12:38:51.272Z,20
2017-05-17T12:40:03.349Z,10
2017-05-17T12:41:15.356Z,10
2017-05-17T12:42:27.860Z,15
2017-05-17T12:43:40.868Z,15
2017-05-17T12:44:53.866Z,15
2017-05-17T12:46:06.862Z,20
2017-05-17T12:47:19.066Z,20
2017-05-17T12:48:32.077Z,20
2017-05-17T12:49:45.083Z,20
2017-05-17T12:50:57.092Z,20
2017-05-17T12:52:10.287Z,20
2017-05-17T12:53:23.289Z,20
2017-05-17T12:54:36.289Z,20
2017-05-17T12:55:48.808Z,20
2017-05-17T12:57:01.812Z,25
2017-05-17T12:58:14.816Z,25
2017-05-17T12:59:27.819Z,20
2017-05-17T13:00:40.816Z,20
2017-05-17T13:01:53.812Z,20
2017-05-17T13:03:06.314Z,20
2017-05-17T13:04:18.823Z,20
2017-05-17T13:05:31.824Z,20
2017-05-17T13:06:44.821Z,20
2017-05-17T13:07:57.345Z,20
2017-05-17T13:09:10.645Z,20
2017-05-17T13:10:23.145Z,20
2017-05-17T13:11:36.148Z,20
2017-05-17T13:12:48.654Z,20
2017-05-17T13:14:01.650Z,20
2017-05-17T13:15:14.158Z,20
2017-05-17T13:16:26.659Z,20
2017-05-17T13:17:39.665Z,20
2017-05-17T13:18:52.177Z,25
2017-05-17T13:20:05.480Z,25
2017-05-17T13:21:17.983Z,25
2017-05-17T13:22:30.983Z,20
2017-05-17T13:23:43.985Z,25
2017-05-17T13:24:56.488Z,25
2017-05-17T13:26:08.991Z,25
2017-05-17T13:27:21.989Z,20
2017-05-17T13:28:34.989Z,25
2017-05-17T13:29:47.972Z,25
2017-05-17T13:31:01.259Z,20
2017-05-17T13:32:14.248Z,25
2017-05-17T13:33:25.746Z,20
2017-05-17T13:34:38.729Z,20
2017-05-17T13:35:51.912Z,20
2017-05-17T13:37:03.903Z,20
2017-05-17T13:38:16.821Z,20
2017-05-17T13:39:29.237Z,20
2017-05-17T13:40:42.142Z,25
2017-05-17T13:41:55.451Z,30
2017-05-17T13:43:08.357Z,30
2017-05-17T13:44:20.774Z,35
2017-05-17T13:45:33.678Z,35
2017-05-17T13:46:46.578Z,30
2017-05-17T13:47:59.487Z,30
2017-05-17T13:49:12.428Z,30
2017-05-17T13:50:24.836Z,25
2017-05-17T13:51:37.761Z,30
2017-05-17T13:52:50.865Z,30
2017-05-17T13:54:03.843Z,30
2017-05-17T13:55:16.255Z,30
2017-05-17T13:56:29.152Z,25
2017-05-17T13:57:42.063Z,30
2017-05-17T13:58:54.970Z,30
2017-05-17T14:00:07.882Z,30
2017-05-17T14:01:19.802Z,30
2017-05-17T14:02:31.725Z,35
2017-05-17T14:03:44.626Z,35
2017-05-17T14:04:57.533Z,35
2017-05-17T14:06:10.443Z,35
2017-05-17T14:07:23.351Z,30
2017-05-17T14:08:36.463Z,30
2017-05-17T14:09:49.367Z,25
2017-05-17T14:11:02.265Z,25
2017-05-17T14:12:14.733Z,30
2017-05-17T14:13:27.637Z,35
2017-05-17T14:14:40.557Z,30
2017-05-17T14:15:53.476Z,45
2017-05-17T14:17:06.393Z,55
2017-05-17T14:18:19.314Z,35
2017-05-17T14:19:32.235Z,30
2017-05-17T14:20:44.866Z,35
2017-05-17T14:21:57.297Z,40
2017-05-17T14:23:09.243Z,45
2017-05-17T14:24:21.188Z,60
2017-05-17T14:25:34.105Z,55
2017-05-17T14:26:46.532Z,50
2017-05-17T14:27:59.465Z,35
2017-05-17T14:29:12.394Z,30
2017-05-17T14:30:25.319Z,30
2017-05-17T14:31:36.768Z,25
2017-05-17T14:32:49.694Z,20
2017-05-17T14:34:02.123Z,20
2017-05-17T14:35:14.555Z,20
2017-05-17T14:36:27.475Z,20
2017-05-17T14:37:39.905Z,20
2017-05-17T14:38:52.837Z,30
2017-05-17T14:40:05.756Z,45
2017-05-17T14:41:18.673Z,35
2017-05-17T14:42:31.790Z,30
2017-05-17T14:43:44.720Z,55
2017-05-17T14:44:57.157Z,40
2017-05-17T14:46:09.596Z,50
2017-05-17T14:47:22.020Z,50
2017-05-17T14:48:34.459Z,50
2017-05-17T14:49:47.385Z,35
2017-05-17T14:51:00.308Z,40
2017-05-17T14:52:13.241Z,40
2017-05-17T14:53:25.671Z,25
2017-05-17T14:54:38.106Z,35
2017-05-17T14:55:50.540Z,40
2017-05-17T14:57:03.467Z,35
2017-05-17T14:58:15.899Z,35
2017-05-17T14:59:28.805Z,35
2017-05-17T15:00:41.706Z,30
2017-05-17T15:01:54.605Z,35
2017-05-17T15:03:07.020Z,25
2017-05-17T15:04:19.920Z,35
2017-05-17T15:05:32.326Z,40
2017-05-17T15:06:45.223Z,35
2017-05-17T15:07:58.128Z,40
2017-05-17T15:09:11.029Z,40
2017-05-17T15:10:23.788Z,35
2017-05-17T15:11:36.696Z,35
2017-05-17T15:12:49.602Z,35
2017-05-17T15:14:02.016Z,40
2017-05-17T15:15:14.422Z,35
2017-05-17T15:16:27.329Z,35
2017-05-17T15:17:39.749Z,35
2017-05-17T15:18:52.654Z,30
2017-05-17T15:20:04.585Z,35
2017-05-17T15:21:16.995Z,35
2017-05-17T15:22:29.953Z,35
2017-05-17T15:23:42.860Z,35
2017-05-17T15:24:55.768Z,35
2017-05-17T15:26:07.693Z,30
2017-05-17T15:27:20.612Z,30
2017-05-17T15:28:33.514Z,35
2017-05-17T15:29:45.440Z,35
2017-05-17T15:30:58.343Z,40
2017-05-17T15:32:11.442Z,35
2017-05-17T15:33:23.362Z,35
2017-05-17T15:34:36.267Z,35
2017-05-17T15:35:49.227Z,35
2017-05-17T15:37:02.131Z,35
2017-05-17T15:38:15.043Z,30
2017-05-17T15:39:27.953Z,25
2017-05-17T15:40:40.859Z,25
2017-05-17T15:41:53.760Z,25
2017-05-17T15:43:06.861Z,25
2017-05-17T15:44:19.765Z,30
2017-05-17T15:45:32.671Z,25
2017-05-17T15:46:45.087Z,25
2017-05-17T15:47:57.998Z,30
2017-05-17T15:49:10.413Z,25
2017-05-17T15:50:22.822Z,30
2017-05-17T15:51:36.171Z,35
2017-05-17T15:52:49.093Z,35
2017-05-17T15:54:01.999Z,30
2017-05-17T15:55:14.901Z,25
2017-05-17T15:56:27.862Z,25
2017-05-17T15:57:40.283Z,20
2017-05-17T15:58:53.190Z,20
2017-05-17T16:00:06.121Z,20
2017-05-17T16:01:19.034Z,25
2017-05-17T16:02:31.453Z,20
2017-05-17T16:03:44.361Z,20
2017-05-17T16:04:57.267Z,20
2017-05-17T16:06:09.677Z,20
2017-05-17T16:07:22.090Z,20
2017-05-17T16:08:35.011Z,20
2017-05-17T16:09:47.920Z,20
2017-05-17T16:11:00.879Z,20
2017-05-17T16:12:13.789Z,20
2017-05-17T16:13:26.695Z,20
2017-05-17T16:14:39.628Z,15
2017-05-17T16:16:06.581Z,15
2017-05-17T16:17:19.043Z,20
2017-05-17T16:18:31.946Z,20
2017-05-17T16:19:44.853Z,20
2017-05-17T16:20:58.058Z,20
2017-05-17T16:22:10.475Z,20
2017-05-17T16:23:22.889Z,20
2017-05-17T16:24:35.308Z,20
2017-05-17T16:25:47.779Z,20
2017-05-17T16:27:00.197Z,20
2017-05-17T16:28:13.102Z,20
2017-05-17T16:29:26.013Z,20
2017-05-17T16:30:38.917Z,20
2017-05-17T16:31:52.073Z,20
2017-05-17T16:33:04.981Z,20
2017-05-17T16:34:17.889Z,20
2017-05-17T16:35:30.791Z,20
2017-05-17T16:36:57.744Z,20
2017-05-17T16:38:10.162Z,20
2017-05-17T16:39:23.077Z,25
2017-05-17T16:40:35.981Z,25
2017-05-17T16:41:48.881Z,20
2017-05-17T16:43:01.787Z,20
2017-05-17T16:44:14.689Z,20
2017-05-17T16:45:27.590Z,20
2017-05-17T16:46:40.004Z,20
2017-05-17T16:47:52.911Z,20
2017-05-17T16:49:05.813Z,20
2017-05-17T16:50:17.730Z,20
2017-05-17T16:51:31.433Z,20
2017-05-17T16:52:44.344Z,20
2017-05-17T16:53:56.761Z,20
2017-05-17T16:55:09.173Z,25
2017-05-17T16:56:21.099Z,20
2017-05-17T16:57:34.011Z,20
2017-05-17T16:58:46.928Z,20
2017-05-17T16:59:59.832Z,20
2017-05-17T17:01:12.736Z,25
2017-05-17T17:02:25.153Z,25
2017-05-17T17:03:37.113Z,20
2017-05-17T17:04:50.014Z,20
2017-05-17T17:06:03.053Z,20
2017-05-17T17:07:16.104Z,20
2017-05-17T17:08:29.151Z,25
2017-05-17T17:09:41.901Z,25
2017-05-17T17:10:54.944Z,25
2017-05-17T17:12:07.988Z,25
2017-05-17T17:13:19.535Z,25
2017-05-17T17:15:59.641Z,20
2017-05-17T17:17:12.683Z,20
2017-05-17T17:18:25.720Z,20
2017-05-17T17:19:38.771Z,20
2017-05-17T17:20:51.811Z,20
2017-05-17T17:22:04.859Z,20
2017-05-17T17:23:17.912Z,20
2017-05-17T17:24:30.961Z,20
2017-05-17T17:25:44.309Z,20
2017-05-17T17:26:57.351Z,20
2017-05-17T17:28:10.395Z,20
2017-05-17T17:29:22.942Z,20
2017-05-17T17:30:35.788Z,20
2017-05-17T17:31:48.835Z,20
2017-05-17T17:33:01.885Z,15
2017-05-17T17:34:13.934Z,15
2017-05-17T17:35:26.479Z,10
2017-05-17T17:36:39.597Z,10
2017-05-17T17:37:52.641Z,10
2017-05-17T17:39:05.684Z,15
2017-05-17T17:40:18.116Z,15
2017-05-17T17:41:31.321Z,15
2017-05-17T17:42:44.229Z,15
2017-05-17T17:43:56.650Z,15
2017-05-17T17:45:09.066Z,15
2017-05-17T17:46:21.676Z,20